Time;durP1;ratioP1;P1;durP2;ratioP2;P2;SDS_P1;SDS_P2;PMS_P1;PMS_P2;Temp;Humidity;BMP_temperature;BMP_pressure;BME280_temperature;BME280_humidity;BME280_pressure;Samples;Min_cycle;Max_cycle;Signal;HPM_P1;HPM_P2
2023/07/04 00:01:19;;;;;;;0.30;0.30;;;;;;;11.87;100.00;99148.53;7389973;19;20018;-76
2023/07/04 00:03:50;;;;;;;0.52;0.40;;;;;;;13.56;100.00;99147.66;7391052;19;20010;-77
2023/07/04 00:06:17;;;;;;;0.20;0.20;;;;;;;11.98;100.00;99148.59;7391307;19;20015;-76
2023/07/04 00:08:44;;;;;;;0.50;0.43;;;;;;;11.50;100.00;99164.56;7391849;19;20016;-76
2023/07/04 00:11:11;;;;;;;0.70;0.30;;;;;;;11.10;100.00;99159.25;7392738;19;20019;-76
2023/07/04 00:13:39;;;;;;;0.40;0.30;;;;;;;10.48;100.00;99165.56;7393232;19;20010;-76
2023/07/04 00:16:11;;;;;;;2.35;0.22;;;;;;;10.29;100.00;99170.69;7392619;19;20354;-76
2023/07/04 00:18:37;;;;;;;0.10;0.10;;;;;;;10.48;100.00;99171.88;7391481;19;20014;-77
2023/07/04 00:21:07;;;;;;;0.10;0.10;;;;;;;10.54;100.00;99169.94;7389511;19;20032;-76
2023/07/04 00:23:35;;;;;;;1.48;0.57;;;;;;;10.48;100.00;99176.72;7390706;19;20025;-77
2023/07/04 00:26:07;;;;;;;0.20;0.15;;;;;;;10.42;100.00;99178.66;7393012;19;20353;-76
2023/07/04 00:28:38;;;;;;;2.67;0.45;;;;;;;10.31;100.00;99173.75;7390178;19;20543;-76
2023/07/04 00:31:05;;;;;;;0.22;0.22;;;;;;;10.22;100.00;99171.09;7390345;19;20022;-76
2023/07/04 00:33:33;;;;;;;5.68;0.73;;;;;;;10.17;100.00;99174.63;7390356;19;20010;-76
2023/07/04 00:36:04;;;;;;;4.97;0.60;;;;;;;10.10;100.00;99174.22;7392119;19;20018;-77
2023/07/04 00:38:34;;;;;;;;;;;;;;;9.81;100.00;99175.91;7396884;19;20022;-77
2023/07/04 00:41:01;;;;;;;0.55;0.55;;;;;;;9.91;100.00;99182.13;7388662;19;20287;-77
2023/07/04 00:44:01;;;;;;;5.18;0.40;;;;;;;9.89;100.00;99173.50;7391835;19;20040;-76
2023/07/04 00:46:39;;;;;;;8.27;0.73;;;;;;;9.92;100.00;99176.06;7391564;19;20043;-77
2023/07/04 00:49:22;;;;;;;0.30;0.30;;;;;;;9.96;100.00;99175.88;7393812;19;20087;-77
2023/07/04 00:52:06;;;;;;;2.55;0.75;;;;;;;9.80;100.00;99179.19;7389485;19;20018;-77
2023/07/04 00:54:40;;;;;;;7.13;0.63;;;;;;;9.85;100.00;99175.72;7390238;19;20018;-77
2023/07/04 00:57:08;;;;;;;1.65;1.02;;;;;;;9.84;100.00;99171.41;7392262;19;20679;-76
2023/07/04 00:59:43;;;;;;;0.45;0.40;;;;;;;9.82;100.00;99177.47;7399867;19;20023;-77
2023/07/04 01:02:15;;;;;;;0.30;0.30;;;;;;;9.66;100.00;99180.00;7396440;19;20022;-77
2023/07/04 01:04:43;;;;;;;0.52;0.30;;;;;;;9.89;100.00;99179.06;7399228;19;20015;-77
2023/07/04 01:07:12;;;;;;;1.33;0.50;;;;;;;9.98;100.00;99190.03;7397848;19;20114;-77
2023/07/04 01:09:42;;;;;;;0.20;0.10;;;;;;;9.85;100.00;99186.84;7396256;19;20351;-77
2023/07/04 01:12:09;;;;;;;5.63;0.70;;;;;;;9.79;100.00;99183.22;7399232;19;20022;-77
2023/07/04 01:14:35;;;;;;;0.73;0.38;;;;;;;9.63;100.00;99186.56;7397469;19;20006;-77
2023/07/04 01:17:02;;;;;;;2.58;0.85;;;;;;;9.57;100.00;99178.13;7398393;19;20029;-77
2023/07/04 01:19:32;;;;;;;0.95;0.30;;;;;;;9.49;100.00;99179.03;7399328;19;20033;-77
2023/07/04 01:22:19;;;;;;;0.10;0.10;;;;;;;9.41;100.00;99175.13;7395764;19;20018;-77
2023/07/04 01:25:09;;;;;;;0.28;0.28;;;;;;;9.56;100.00;99181.41;7396904;19;20035;-77
2023/07/04 01:27:37;;;;;;;0.30;0.30;;;;;;;9.89;100.00;99168.72;7396620;19;20078;-76
2023/07/04 01:30:05;;;;;;;0.30;0.30;;;;;;;10.49;100.00;99173.44;7396517;19;20021;-77
2023/07/04 01:32:34;;;;;;;0.63;0.50;;;;;;;9.62;100.00;99182.22;7398133;19;20026;-77
2023/07/04 01:35:00;;;;;;;0.50;0.50;;;;;;;10.10;100.00;99169.44;7398700;19;20186;-77
2023/07/04 01:37:29;;;;;;;1.75;0.88;;;;;;;9.77;100.00;99169.81;7397200;19;20010;-77
2023/07/04 01:39:57;;;;;;;1.17;0.65;;;;;;;9.86;100.00;99180.03;7394604;19;20040;-77
2023/07/04 01:42:23;;;;;;;0.40;0.40;;;;;;;9.71;100.00;99187.66;7394580;19;20392;-77
2023/07/04 01:44:50;;;;;;;2.92;0.50;;;;;;;9.74;100.00;99186.72;7395441;19;20015;-77
2023/07/04 01:47:18;;;;;;;5.45;0.65;;;;;;;9.82;100.00;99182.25;7393643;19;20018;-77
2023/07/04 01:49:44;;;;;;;1.05;0.95;;;;;;;9.55;100.00;99185.44;7395490;19;20015;-77
2023/07/04 01:52:10;;;;;;;0.40;0.35;;;;;;;9.45;100.00;99189.59;7398071;19;20029;-77
2023/07/04 01:54:36;;;;;;;1.05;0.50;;;;;;;9.41;100.00;99187.00;7397892;19;20025;-77
2023/07/04 01:57:02;;;;;;;0.20;0.20;;;;;;;9.98;100.00;99190.03;7397877;19;20165;-77
2023/07/04 01:59:28;;;;;;;0.10;0.10;;;;;;;9.40;100.00;99190.28;7393571;19;20482;-77
2023/07/04 02:01:55;;;;;;;4.00;0.70;;;;;;;9.55;100.00;99196.56;7393310;19;20093;-77
2023/07/04 02:04:21;;;;;;;1.02;0.93;;;;;;;9.72;100.00;99189.22;7394777;19;20093;-77
2023/07/04 02:06:47;;;;;;;1.38;0.30;;;;;;;9.54;100.00;99190.22;7397750;19;20504;-77
2023/07/04 02:09:15;;;;;;;0.20;0.20;;;;;;;9.41;100.00;99186.25;7394756;19;20021;-77
2023/07/04 02:11:41;;;;;;;3.28;0.25;;;;;;;9.37;100.00;99185.69;7392529;19;20469;-77
2023/07/04 02:14:09;;;;;;;0.30;0.30;;;;;;;9.21;100.00;99188.97;7394946;19;20010;-77
2023/07/04 02:16:35;;;;;;;2.38;0.65;;;;;;;9.08;100.00;99180.94;7397065;19;20476;-77
2023/07/04 02:19:01;;;;;;;2.58;0.55;;;;;;;9.22;100.00;99185.72;7396245;19;20025;-77
2023/07/04 02:21:27;;;;;;;1.27;0.60;;;;;;;9.55;100.00;99185.44;7393996;19;20478;-77
2023/07/04 02:23:54;;;;;;;0.25;0.22;;;;;;;9.24;100.00;99185.22;7396395;19;20014;-77
2023/07/04 02:26:20;;;;;;;1.63;0.30;;;;;;;9.27;100.00;99181.50;7395643;19;20421;-77
2023/07/04 02:28:46;;;;;;;2.65;0.65;;;;;;;9.47;100.00;99181.53;7393711;19;20040;-77
2023/07/04 02:31:14;;;;;;;5.47;0.63;;;;;;;9.20;100.00;99182.66;7395380;19;20034;-77
2023/07/04 02:33:40;;;;;;;0.25;0.17;;;;;;;10.04;100.00;99192.88;7396575;19;20018;-77
2023/07/04 02:36:11;;;;;;;0.95;0.95;;;;;;;9.48;100.00;99169.16;7394343;19;20023;-77
2023/07/04 02:38:39;;;;;;;0.20;0.20;;;;;;;9.39;100.00;99175.63;7393392;19;20035;-77
2023/07/04 02:41:07;;;;;;;0.93;0.30;;;;;;;9.36;100.00;99175.81;7392518;19;20014;-77
2023/07/04 02:43:35;;;;;;;0.10;0.10;;;;;;;8.83;100.00;99171.25;7394625;19;20376;-77
2023/07/04 02:46:03;;;;;;;0.98;0.35;;;;;;;8.98;100.00;99182.31;7393764;19;20078;-77
2023/07/04 02:48:31;;;;;;;0.40;0.40;;;;;;;9.27;100.00;99181.50;7398016;19;20058;-77
2023/07/04 02:50:59;;;;;;;0.20;0.20;;;;;;;9.20;100.00;99174.34;7394546;19;20018;-77
2023/07/04 02:53:25;;;;;;;1.38;0.52;;;;;;;8.93;100.00;99178.19;7395399;19;20010;-77
2023/07/04 02:55:54;;;;;;;0.30;0.30;;;;;;;9.41;100.00;99164.78;7394203;19;20015;-77
2023/07/04 02:58:23;;;;;;;0.50;0.45;;;;;;;11.08;100.00;99156.19;7397913;19;20007;-77
2023/07/04 03:00:51;;;;;;;0.57;0.40;;;;;;;9.37;100.00;99153.13;7392780;19;20048;-77
2023/07/04 03:03:21;;;;;;;9.18;0.55;;;;;;;9.68;100.00;99158.06;7393709;19;20017;-77
2023/07/04 03:05:48;;;;;;;6.18;0.90;;;;;;;8.75;100.00;99156.19;7393463;19;20018;-77
2023/07/04 03:08:15;;;;;;;5.00;0.75;;;;;;;8.96;100.00;99157.81;7396992;19;20019;-77
2023/07/04 03:10:47;;;;;;;0.40;0.22;;;;;;;8.80;100.00;99166.63;7393571;19;20410;-77
2023/07/04 03:13:17;;;;;;;0.40;0.40;;;;;;;9.30;100.00;99170.19;7394120;19;20070;-77
2023/07/04 03:15:44;;;;;;;0.70;0.70;;;;;;;9.20;100.00;99170.78;7392627;19;20019;-77
2023/07/04 03:18:11;;;;;;;10.43;0.40;;;;;;;9.51;100.00;99173.75;7397394;19;20600;-76
2023/07/04 03:20:39;;;;;;;0.28;0.25;;;;;;;8.88;100.00;99178.88;7391648;19;20097;-77
2023/07/04 03:23:05;;;;;;;4.88;0.60;;;;;;;8.74;100.00;99179.66;7393736;19;20007;-77
2023/07/04 03:25:32;;;;;;;0.95;0.73;;;;;;;9.93;100.00;99187.94;7392720;19;20015;-77
2023/07/04 03:27:59;;;;;;;0.45;0.45;;;;;;;9.91;100.00;99179.34;7397969;19;20018;-77
2023/07/04 03:30:28;;;;;;;0.68;0.68;;;;;;;9.02;100.00;99167.00;7392564;19;20039;-76
2023/07/04 03:33:00;;;;;;;0.20;0.20;;;;;;;8.75;100.00;99178.41;7392035;19;20406;-77
2023/07/04 03:35:26;;;;;;;0.45;0.40;;;;;;;9.15;100.00;99170.22;7394318;19;20100;-76
2023/07/04 03:37:53;;;;;;;0.30;0.30;;;;;;;8.81;100.00;99179.28;7396013;19;20014;-77
2023/07/04 03:40:19;;;;;;;0.40;0.40;;;;;;;8.72;100.00;99182.16;7392056;19;20011;-76
2023/07/04 03:42:45;;;;;;;0.82;0.43;;;;;;;9.21;100.00;99172.31;7390795;19;20049;-77
2023/07/04 03:45:11;;;;;;;0.30;0.30;;;;;;;9.00;100.00;99163.16;7392298;19;20074;-76
2023/07/04 03:47:37;;;;;;;2.15;0.63;;;;;;;9.53;100.00;99179.59;7393605;19;20018;-76
2023/07/04 03:50:06;;;;;;;0.30;0.30;;;;;;;9.08;100.00;99169.84;7390096;19;20538;-76
2023/07/04 03:52:33;;;;;;;1.55;0.68;;;;;;;9.84;100.00;99169.41;7393648;19;20043;-76
2023/07/04 03:54:59;;;;;;;0.40;0.30;;;;;;;9.14;100.00;99167.91;7392085;19;20384;-76
2023/07/04 03:57:25;;;;;;;1.00;0.50;;;;;;;9.65;100.00;99156.25;7393776;19;20026;-77
2023/07/04 03:59:51;;;;;;;0.47;0.25;;;;;;;9.04;100.00;99158.94;7390013;19;20416;-76
2023/07/04 04:02:17;;;;;;;0.32;0.30;;;;;;;9.43;100.00;99173.41;7388732;19;20470;-77
2023/07/04 04:04:43;;;;;;;0.77;0.68;;;;;;;10.66;100.00;99154.09;7392993;19;20357;-76
2023/07/04 04:07:10;;;;;;;0.32;0.30;;;;;;;9.78;100.00;99154.66;7393915;19;20019;-77
2023/07/04 04:09:38;;;;;;;1.45;0.65;;;;;;;9.33;100.00;99168.44;7390143;19;20049;-76
2023/07/04 04:12:05;;;;;;;4.63;0.50;;;;;;;9.32;100.00;99161.34;7393513;19;20014;-76
2023/07/04 04:14:32;;;;;;;0.50;0.50;;;;;;;9.31;100.00;99162.63;7392633;19;20368;-77
2023/07/04 04:16:59;;;;;;;1.30;0.50;;;;;;;9.26;100.00;99164.06;7392780;19;20018;-76
2023/07/04 04:19:26;;;;;;;4.68;0.50;;;;;;;9.27;100.00;99162.81;7390795;19;20006;-76
2023/07/04 04:21:53;;;;;;;1.10;0.45;;;;;;;9.51;100.00;99162.63;7391327;19;20014;-76
2023/07/04 04:24:20;;;;;;;0.50;0.50;;;;;;;9.54;100.00;99162.44;7390648;19;20038;-76
2023/07/04 04:26:47;;;;;;;0.20;0.20;;;;;;;9.43;100.00;99167.06;7393227;19;20014;-76
2023/07/04 04:29:15;;;;;;;2.10;0.82;;;;;;;9.21;100.00;99172.31;7391331;19;20104;-76
2023/07/04 04:31:41;;;;;;;0.20;0.20;;;;;;;8.98;100.00;99183.09;7392252;19;20018;-76
2023/07/04 04:34:08;;;;;;;0.40;0.40;;;;;;;9.34;100.00;99186.63;7390440;19;20055;-76
2023/07/04 04:36:34;;;;;;;0.32;0.32;;;;;;;9.98;100.00;99173.34;7392855;19;20747;-76
2023/07/04 04:39:01;;;;;;;0.98;0.65;;;;;;;9.65;100.00;99178.50;7390992;19;20040;-76
2023/07/04 04:41:29;;;;;;;0.52;0.52;;;;;;;9.98;100.00;99178.16;7391123;19;20015;-77
2023/07/04 04:43:57;;;;;;;0.30;0.30;;;;;;;9.78;100.00;99176.13;7391871;19;20019;-77
2023/07/04 04:46:23;;;;;;;0.30;0.30;;;;;;;9.57;100.00;99177.38;7390992;19;20364;-76
2023/07/04 04:48:50;;;;;;;0.63;0.63;;;;;;;9.71;100.00;99165.44;7391228;19;20015;-76
2023/07/04 04:51:18;;;;;;;0.20;0.20;;;;;;;9.42;100.00;99169.06;7391141;19;20023;-76
2023/07/04 04:53:46;;;;;;;0.60;0.60;;;;;;;9.59;100.00;99163.75;7391009;19;20022;-76
2023/07/04 04:56:12;;;;;;;5.25;0.70;;;;;;;9.77;100.00;99157.91;7391722;19;20027;-76
2023/07/04 04:58:43;;;;;;;0.40;0.40;;;;;;;9.81;100.00;99159.22;7394132;19;20469;-76
2023/07/04 05:01:21;;;;;;;3.10;0.75;;;;;;;9.79;100.00;99167.31;7389104;19;20006;-76
2023/07/04 05:03:53;;;;;;;0.50;0.50;;;;;;;9.84;100.00;99168.63;7391977;19;20082;-76
2023/07/04 05:06:23;;;;;;;0.50;0.50;;;;;;;10.07;100.00;99164.84;7389601;19;20470;-76
2023/07/04 05:08:50;;;;;;;0.20;0.20;;;;;;;10.14;100.00;99172.03;7390597;19;20015;-76
2023/07/04 05:11:17;;;;;;;0.25;0.25;;;;;;;9.75;100.00;99172.31;7390954;19;20018;-76
2023/07/04 05:13:45;;;;;;;0.40;0.40;;;;;;;13.04;100.00;99163.47;7388682;19;20015;-76
2023/07/04 05:16:14;;;;;;;0.43;0.43;;;;;;;13.31;100.00;99159.91;7391505;19;20029;-76
2023/07/04 05:18:42;;;;;;;0.20;0.20;;;;;;;13.18;100.00;99168.06;7391096;19;20024;-76
2023/07/04 05:21:14;;;;;;;0.40;0.40;;;;;;;10.80;100.00;99172.69;7388405;19;20027;-76
2023/07/04 05:23:43;;;;;;;0.22;0.22;;;;;;;10.31;100.00;99179.31;7390276;19;20039;-76
2023/07/04 05:26:13;;;;;;;0.30;0.30;;;;;;;10.52;100.00;99166.88;7390994;19;20013;-76
2023/07/04 05:28:40;;;;;;;0.30;0.30;;;;;;;10.32;100.00;99178.06;7390458;19;20014;-76
2023/07/04 05:31:09;;;;;;;1.30;0.82;;;;;;;10.79;100.00;99178.75;7389337;19;20264;-76
2023/07/04 05:36:08;;;;;;;2.10;0.38;;;;;;;14.09;100.00;99159.66;7390435;19;20026;-76
2023/07/04 05:38:35;;;;;;;0.20;0.10;;;;;;;10.34;100.00;99177.56;7388215;19;20024;-76
2023/07/04 05:41:01;;;;;;;0.20;0.20;;;;;;;9.90;100.00;99178.56;7389093;19;20360;-76
2023/07/04 05:43:28;;;;;;;2.28;1.38;;;;;;;9.65;100.00;99190.38;7389922;19;20047;-76
2023/07/04 05:45:55;;;;;;;0.13;0.10;;;;;;;10.04;100.00;99193.66;7397432;19;20010;-76
2023/07/04 05:48:21;;;;;;;0.65;0.35;;;;;;;10.41;100.00;99183.47;7395462;19;20020;-76
2023/07/04 05:50:56;;;;;;;11.35;0.85;;;;;;;10.57;100.00;99184.88;7395462;19;20027;-76
2023/07/04 05:53:27;;;;;;;0.17;0.17;;;;;;;10.78;100.00;99188.38;7396942;19;20021;-76
2023/07/04 05:56:06;;;;;;;0.95;0.32;;;;;;;11.09;100.00;99188.34;7396555;19;20018;-76
2023/07/04 05:58:33;;;;;;;2.08;0.73;;;;;;;11.07;100.00;99180.50;7399400;19;20052;-76
2023/07/04 06:01:15;;;;;;;1.58;0.90;;;;;;;11.36;100.00;99183.00;7393816;19;20015;-76
2023/07/04 06:03:43;;;;;;;2.30;0.65;;;;;;;11.60;100.00;99179.06;7396530;19;20035;-76
2023/07/04 06:06:22;;;;;;;0.32;0.32;;;;;;;11.24;100.00;99191.78;7394905;19;20110;-76
2023/07/04 06:08:49;;;;;;;4.60;0.47;;;;;;;11.22;100.00;99188.72;7397035;19;20022;-76
2023/07/04 06:11:16;;;;;;;0.22;0.22;;;;;;;11.60;100.00;99193.78;7396675;19;20018;-76
2023/07/04 06:13:42;;;;;;;0.28;0.28;;;;;;;12.13;100.00;99193.81;7396861;19;20023;-76
2023/07/04 06:16:08;;;;;;;0.30;0.30;;;;;;;13.12;100.00;99181.31;7396837;19;20015;-77
2023/07/04 06:18:35;;;;;;;0.55;0.55;;;;;;;12.47;100.00;99189.09;7397847;19;20347;-76
2023/07/04 06:21:09;;;;;;;2.38;0.40;;;;;;;12.98;100.00;99185.06;7393173;19;20532;-76
2023/07/04 06:23:36;;;;;;;0.75;0.28;;;;;;;12.99;100.00;99171.88;7395802;19;20362;-76
2023/07/04 06:26:03;;;;;;;0.40;0.20;;;;;;;12.54;100.00;99176.66;7395699;19;20027;-76
2023/07/04 06:28:29;;;;;;;1.50;0.73;;;;;;;13.25;100.00;99175.19;7396007;19;20025;-76
2023/07/04 06:30:55;;;;;;;0.85;0.68;;;;;;;12.80;100.00;99179.97;7395948;19;20014;-76
2023/07/04 06:33:21;;;;;;;0.40;0.20;;;;;;;12.84;100.00;99186.09;7394251;19;20018;-77
2023/07/04 06:35:47;;;;;;;1.00;0.68;;;;;;;13.02;100.00;99182.00;7396706;19;20022;-77
2023/07/04 06:38:14;;;;;;;2.63;0.50;;;;;;;13.30;100.00;99185.59;7397635;19;20051;-76
2023/07/04 06:40:40;;;;;;;6.50;1.27;;;;;;;13.06;100.00;99190.97;7395019;19;20555;-77
2023/07/04 06:43:07;;;;;;;4.55;1.48;;;;;;;13.14;100.00;99194.75;7394380;19;20029;-77
2023/07/04 06:45:34;;;;;;;1.75;0.82;;;;;;;13.09;100.00;99192.72;7395400;19;20376;-76
2023/07/04 06:48:00;;;;;;;0.90;0.20;;;;;;;13.18;100.00;99184.84;7395234;19;20480;-77
2023/07/04 06:50:28;;;;;;;1.85;0.65;;;;;;;13.35;100.00;99193.97;7392002;19;20027;-77
2023/07/04 06:52:55;;;;;;;1.38;0.22;;;;;;;13.33;100.00;99196.53;7394077;19;20053;-76
2023/07/04 06:55:21;;;;;;;0.45;0.20;;;;;;;13.42;100.00;99199.06;7392921;19;20092;-77
2023/07/04 06:57:47;;;;;;;0.40;0.30;;;;;;;13.41;100.00;99189.13;7396188;19;20035;-77
2023/07/04 07:00:14;;;;;;;0.65;0.47;;;;;;;13.60;100.00;99187.31;7391130;19;20010;-77
2023/07/04 07:02:40;;;;;;;2.20;0.20;;;;;;;13.00;100.00;99190.91;7391236;19;20535;-76
2023/07/04 07:05:06;;;;;;;0.73;0.28;;;;;;;12.81;100.00;99190.66;7393053;19;20018;-76
2023/07/04 07:07:33;;;;;;;0.85;0.52;;;;;;;12.96;100.00;99193.22;7394648;19;20476;-76
2023/07/04 07:09:59;;;;;;;3.67;0.25;;;;;;;13.20;100.00;99182.31;7393234;19;20010;-76
2023/07/04 07:12:25;;;;;;;0.20;0.08;;;;;;;13.18;100.00;99176.47;7396181;19;20018;-76
2023/07/04 07:14:51;;;;;;;2.72;0.32;;;;;;;13.19;100.00;99180.03;7394507;19;20337;-76
2023/07/04 07:17:18;;;;;;;3.85;0.68;;;;;;;13.44;100.00;99185.31;7395199;19;20015;-76
2023/07/04 07:19:44;;;;;;;0.10;0.10;;;;;;;13.41;100.00;99188.38;7389055;19;20086;-65
2023/07/04 07:22:11;;;;;;;6.28;0.30;;;;;;;14.01;100.00;99181.09;7394578;19;20045;-62
2023/07/04 07:24:37;;;;;;;1.48;0.57;;;;;;;14.44;100.00;99184.97;7395760;19;20039;-63
2023/07/04 07:27:03;;;;;;;0.20;0.17;;;;;;;14.86;100.00;99181.63;7395774;19;20021;-63
2023/07/04 07:29:29;;;;;;;0.25;0.25;;;;;;;16.80;100.00;99193.53;7401398;19;20021;-62
2023/07/04 07:31:56;;;;;;;0.10;0.10;;;;;;;15.03;100.00;99187.84;7396164;19;20045;-63
2023/07/04 07:34:22;;;;;;;0.20;0.20;;;;;;;14.58;100.00;99197.09;7396194;19;20060;-64
2023/07/04 07:36:48;;;;;;;1.27;0.10;;;;;;;14.25;100.00;99186.84;7394936;19;20539;-64
2023/07/04 07:39:16;;;;;;;0.20;0.17;;;;;;;14.36;100.00;99184.75;7395969;19;20031;-62
2023/07/04 07:41:46;;;;;;;1.42;0.22;;;;;;;15.18;100.00;99191.03;7395188;19;20014;-65
2023/07/04 07:44:13;;;;;;;0.90;0.30;;;;;;;15.26;100.00;99184.88;7395885;19;20014;-65
2023/07/04 07:46:40;;;;;;;2.10;0.57;;;;;;;14.59;100.00;99184.63;7396058;19;20025;-62
2023/07/04 07:49:07;;;;;;;0.30;0.30;;;;;;;14.72;100.00;99191.16;7396395;19;20007;-58
2023/07/04 07:51:34;;;;;;;1.13;0.10;;;;;;;23.18;100.00;99180.75;7396019;19;20471;-59
2023/07/04 07:54:01;;;;;;;2.45;0.40;;;;;;;16.42;100.00;99198.38;7397271;19;20021;-60
2023/07/04 07:56:33;;;;;;;0.20;0.10;;;;;;;15.34;100.00;99199.84;7395818;19;20011;-60
2023/07/04 07:58:59;;;;;;;2.03;0.40;;;;;;;14.90;100.00;99198.19;7394979;19;20015;-59
2023/07/04 08:01:29;;;;;;;4.10;0.10;;;;;;;15.27;100.00;99178.72;7394538;19;20015;-60
2023/07/04 08:03:56;;;;;;;0.52;0.52;;;;;;;14.75;100.00;99189.38;7395802;19;20346;-61
2023/07/04 08:06:34;;;;;;;0.10;0.10;;;;;;;14.82;100.00;99180.38;7395396;19;20484;-60
2023/07/04 08:09:02;;;;;;;0.20;0.10;;;;;;;15.49;100.00;99172.16;7393692;19;20014;-59
2023/07/04 08:11:29;;;;;;;2.40;0.30;;;;;;;15.20;100.00;99173.72;7394661;19;20015;-61
2023/07/04 08:13:56;;;;;;;1.27;0.40;;;;;;;15.24;100.00;99176.97;7395138;19;20093;-59
2023/07/04 08:16:29;;;;;;;5.97;0.22;;;;;;;17.47;100.00;99181.16;7395708;19;20010;-60
2023/07/04 08:18:58;;;;;;;0.98;0.25;;;;;;;16.25;100.00;99183.03;7394896;19;20462;-61
2023/07/04 08:21:27;;;;;;;0.43;0.10;;;;;;;16.25;100.00;99171.78;7394139;19;20066;-66
2023/07/04 08:23:54;;;;;;;8.60;0.80;;;;;;;16.08;100.00;99174.81;7394731;19;20401;-60
2023/07/04 08:26:23;;;;;;;0.77;0.55;;;;;;;16.57;100.00;99187.47;7394576;19;20011;-60
2023/07/04 08:28:53;;;;;;;0.10;0.10;;;;;;;16.80;100.00;99181.50;7398278;19;20467;-61
2023/07/04 08:31:20;;;;;;;0.45;0.40;;;;;;;17.02;100.00;99176.28;7393472;19;20017;-60
2023/07/04 08:33:47;;;;;;;0.85;0.52;;;;;;;17.16;100.00;99174.25;7395029;19;20474;-58
2023/07/04 08:36:14;;;;;;;1.10;0.20;;;;;;;17.77;100.00;99176.78;7394937;19;20021;-62
2023/07/04 08:38:41;;;;;;;0.45;0.10;;;;;;;18.12;100.00;99179.13;7397019;19;20010;-59
2023/07/04 08:41:28;;;;;;;22.35;1.23;;;;;;;18.70;100.00;99169.69;7392935;19;20018;-59
2023/07/04 08:44:00;;;;;;;0.20;0.17;;;;;;;18.37;100.00;99173.22;7393379;19;20378;-67
2023/07/04 08:46:37;;;;;;;0.10;0.10;;;;;;;19.01;100.00;99182.81;7394984;19;20010;-66
2023/07/04 08:49:04;;;;;;;1.20;0.40;;;;;;;18.60;100.00;99188.38;7396363;19;20018;-60
2023/07/04 08:51:43;;;;;;;0.55;0.30;;;;;;;18.48;100.00;99189.94;7392976;19;20489;-61
2023/07/04 08:54:12;;;;;;;0.30;0.30;;;;;;;19.44;100.00;99179.44;7391459;19;20015;-60
2023/07/04 08:56:39;;;;;;;2.10;0.20;;;;;;;20.37;100.00;99176.06;7394237;19;20019;-61
2023/07/04 08:59:30;;;;;;;2.10;0.40;;;;;;;19.46;100.00;99188.88;7397783;19;20011;-59
2023/07/04 09:02:26;;;;;;;2.72;0.30;;;;;;;19.59;100.00;99183.13;7390841;19;20017;-61
2023/07/04 09:05:38;;;;;;;0.90;0.45;;;;;;;20.70;100.00;99179.19;7393620;19;20066;-60
2023/07/04 09:08:36;;;;;;;0.38;0.10;;;;;;;21.11;100.00;99176.81;7396220;19;20023;31
2023/07/04 09:11:06;;;;;;;0.75;0.50;;;;;;;23.80;96.27;99173.25;7394945;19;20070;-62
2023/07/04 09:13:37;;;;;;;0.57;0.20;;;;;;;20.03;100.00;99166.25;7394764;19;20031;-61
2023/07/04 09:16:20;;;;;;;0.10;0.00;;;;;;;19.41;100.00;99175.66;7393738;19;20014;-62
2023/07/04 09:18:50;;;;;;;0.10;0.10;;;;;;;18.91;100.00;99179.69;7398143;19;20018;-61
2023/07/04 09:21:19;;;;;;;0.15;0.08;;;;;;;18.99;100.00;99174.13;7399269;19;20007;-62
2023/07/04 09:23:48;;;;;;;0.20;0.10;;;;;;;19.32;100.00;99172.50;7399628;19;20361;-62
2023/07/04 09:26:24;;;;;;;0.73;0.05;;;;;;;20.04;100.00;99177.00;7400491;19;20021;-62
2023/07/04 09:28:52;;;;;;;0.10;0.10;;;;;;;19.37;100.00;99180.88;7403122;19;20047;-61
2023/07/04 09:31:23;;;;;;;0.20;0.20;;;;;;;20.12;100.00;99186.28;7397929;19;20014;-61
2023/07/04 09:33:52;;;;;;;0.10;0.00;;;;;;;19.90;100.00;99186.16;7400056;19;20015;-60
2023/07/04 09:36:21;;;;;;;2.22;0.22;;;;;;;22.10;98.32;99171.84;7401007;19;20490;-60
2023/07/04 09:38:57;;;;;;;1.48;0.13;;;;;;;27.02;71.69;99170.69;7404508;19;20022;-60
2023/07/04 09:41:29;;;;;;;1.50;0.25;;;;;;;27.78;58.11;99177.41;7398650;19;20011;-60
2023/07/04 09:44:10;;;;;;;0.65;0.25;;;;;;;19.99;100.00;99189.22;7400453;19;20018;-60
2023/07/04 09:46:36;;;;;;;0.50;0.20;;;;;;;24.44;88.09;99169.31;7400542;19;20040;-61
2023/07/04 09:49:23;;;;;;;4.22;0.35;;;;;;;20.94;100.00;99173.75;7404041;19;20019;-60
2023/07/04 09:52:14;;;;;;;0.10;0.10;;;;;;;19.67;100.00;99175.47;7400577;19;20010;-60
2023/07/04 09:54:41;;;;;;;11.20;1.30;;;;;;;19.50;100.00;99172.31;7400524;19;20011;-60
2023/07/04 09:57:25;;;;;;;3.40;0.40;;;;;;;29.63;50.04;99162.91;7401663;19;20010;-60
2023/07/04 09:59:52;;;;;;;1.95;0.30;;;;;;;21.25;89.49;99182.31;7398645;19;20014;-61
2023/07/04 10:02:24;;;;;;;0.10;0.00;;;;;;;27.20;63.15;99168.34;7397487;19;20353;-61
2023/07/04 10:04:52;;;;;;;2.47;0.13;;;;;;;24.18;67.62;99175.72;7399808;19;20066;-62
2023/07/04 10:07:24;;;;;;;0.32;0.03;;;;;;;20.54;95.68;99164.22;7399115;19;20325;-61
2023/07/04 10:10:01;;;;;;;0.35;0.10;;;;;;;19.80;100.00;99171.78;7401229;19;20030;-62
2023/07/04 10:12:31;;;;;;;1.13;0.20;;;;;;;19.22;100.00;99163.78;7399646;19;20010;-62
2023/07/04 10:14:59;;;;;;;0.25;0.20;;;;;;;18.87;100.00;99172.88;7398827;19;20010;-60
2023/07/04 10:17:35;;;;;;;0.20;0.10;;;;;;;18.16;100.00;99173.94;7396699;19;20011;-62
2023/07/04 10:20:12;;;;;;;2.35;0.20;;;;;;;18.27;100.00;99177.81;7397598;19;20052;-62
2023/07/04 10:22:45;;;;;;;0.50;0.30;;;;;;;17.80;100.00;99175.66;7399615;19;20006;-62
2023/07/04 10:25:15;;;;;;;0.75;0.30;;;;;;;17.41;100.00;99178.44;7399035;19;20053;-63
2023/07/04 10:27:46;;;;;;;0.10;0.00;;;;;;;17.29;100.00;99177.13;7398883;19;20424;-62
2023/07/04 10:30:16;;;;;;;0.17;0.10;;;;;;;17.29;100.00;99174.28;7398943;19;20022;-62
2023/07/04 10:32:48;;;;;;;0.63;0.63;;;;;;;17.89;100.00;99178.06;7398076;19;20010;-63
2023/07/04 10:35:22;;;;;;;0.10;0.10;;;;;;;18.53;100.00;99166.50;7398815;19;20019;-62
2023/07/04 10:38:00;;;;;;;2.30;0.47;;;;;;;18.81;100.00;99160.97;7399005;19;20015;-61
2023/07/04 10:40:27;;;;;;;0.20;0.20;;;;;;;18.81;100.00;99158.16;7398207;19;20003;-61
2023/07/04 10:43:01;;;;;;;0.68;0.38;;;;;;;19.60;100.00;99164.09;7397590;19;20471;-62
2023/07/04 10:45:29;;;;;;;0.13;0.10;;;;;;;19.00;100.00;99164.34;7401843;19;20010;-61
2023/07/04 10:48:01;;;;;;;0.10;0.00;;;;;;;19.02;100.00;99164.53;7397868;19;20467;-61
2023/07/04 10:50:39;;;;;;;0.50;0.40;;;;;;;19.04;100.00;99161.94;7398466;19;20013;-64
2023/07/04 10:53:07;;;;;;;0.25;0.10;;;;;;;19.53;100.00;99151.44;7398082;19;20022;-61
2023/07/04 10:55:38;;;;;;;4.07;1.00;;;;;;;19.18;100.00;99154.91;7397763;19;20010;-64
2023/07/04 10:58:10;;;;;;;0.38;0.08;;;;;;;19.25;100.00;99148.56;7401805;19;20476;-62
2023/07/04 11:00:48;;;;;;;0.38;0.17;;;;;;;19.31;100.00;99146.38;7397431;19;20011;-61
2023/07/04 11:03:27;;;;;;;0.43;0.10;;;;;;;19.31;100.00;99149.19;7395752;19;20011;-64
2023/07/04 11:05:56;;;;;;;0.15;0.13;;;;;;;19.72;100.00;99151.19;7396968;19;20368;-62
2023/07/04 11:08:28;;;;;;;2.05;0.20;;;;;;;20.11;100.00;99150.84;7398616;19;20015;-62
2023/07/04 11:11:00;;;;;;;2.08;0.15;;;;;;;20.77;100.00;99148.06;7398098;19;20102;-61
2023/07/04 11:13:26;;;;;;;0.40;0.30;;;;;;;20.83;98.38;99139.41;7395530;19;20025;-60
2023/07/04 11:15:58;;;;;;;0.05;0.00;;;;;;;20.61;100.00;99145.75;7397588;19;20072;-61
2023/07/04 11:18:29;;;;;;;0.10;0.10;;;;;;;20.54;96.99;99138.78;7396459;19;20025;-61
2023/07/04 11:21:11;;;;;;;4.15;0.10;;;;;;;20.53;99.55;99139.34;7398731;19;20023;-59
2023/07/04 11:23:53;;;;;;;0.22;0.03;;;;;;;20.96;95.04;99137.13;7396008;19;20011;-60
2023/07/04 11:26:51;;;;;;;0.25;0.10;;;;;;;21.00;91.90;99131.88;7396193;19;20019;-61
2023/07/04 11:29:21;;;;;;;0.10;0.10;;;;;;;21.18;88.06;99140.59;7396724;19;20011;-64
2023/07/04 11:32:02;;;;;;;1.63;0.52;;;;;;;21.17;86.74;99139.06;7399448;19;20036;-63
2023/07/04 11:35:17;;;;;;;1.30;0.40;;;;;;;20.16;91.35;99137.88;7396602;19;20021;-61
2023/07/04 11:37:45;;;;;;;0.10;0.10;;;;;;;20.03;99.09;99152.13;7395142;19;20031;-62
2023/07/04 11:40:23;;;;;;;0.20;0.10;;;;;;;20.07;95.88;99146.88;7396169;19;20032;-61
2023/07/04 11:42:58;;;;;;;0.20;0.10;;;;;;;19.88;99.45;99149.22;7396974;19;20007;-61
2023/07/04 11:45:29;;;;;;;0.00;0.00;;;;;;;20.12;98.78;99145.97;7396634;19;20022;-61